Flight Track Log - Related Links

Times and Time Zones

All times are in EDT time to prevent confusion due to time zone crossing. See the AAL963 flight status page for this flight to view local times or setup timezone preferences in your user account.

Time Position Orientation Groundspeed Altitude Reporting Facility
EDT Latitude Longitude Course Direction KTS MPH feet Rate Location/Type
Mon 10:02:04 PM 32.9270 -97.0290 North 193 222 1,600  Level FlightAware ADS-B
Mon 10:02:17 PM 32.9359 -97.0280 North 190 219 2,000 1,765 Climbing FlightAware ADS-B
Mon 10:02:38 PM 32.9566 -97.0236 10° North 213 245 2,600 1,714 Climbing FlightAware ADS-B
Mon 10:02:59 PM 32.9765 -97.0191 11° North 229 264 3,200 2,341 Climbing FlightAware ADS-B
Mon 10:03:19 PM 32.9984 -97.0140 11° North 230 265 4,200 2,690 Climbing FlightAware ADS-B
Mon 10:03:28 PM 33.0069 -97.0105 19° North 234 269 4,500 1,714 Climbing FlightAware ADS-B
Mon 10:03:40 PM 33.0170 -97.0020 35° Northeast 247 284 4,800 1,800 Climbing FlightAware ADS-B
Mon 10:03:48 PM 33.0234 -96.9916 54° Northeast 254 292 5,100 1,714 Climbing FlightAware ADS-B
Mon 10:04:01 PM 33.0268 -96.9811 69° East 264 304 5,400 1,429 Climbing FlightAware ADS-B
Mon 10:04:09 PM 33.0294 -96.9620 81° East 280 322 5,600 2,276 Climbing FlightAware ADS-B
Mon 10:04:30 PM 33.0309 -96.9325 87° East 283 326 6,500 2,488 Climbing FlightAware ADS-B
Mon 10:04:50 PM 33.0288 -96.8980 94° East 290 334 7,300 2,483 Climbing FlightAware ADS-B
Mon 10:04:59 PM 33.0239 -96.8855 115° Southeast 294 338 7,700 2,483 Climbing FlightAware ADS-B
Mon 10:05:19 PM 33.0081 -96.8580 124° Southeast 300 345 8,500 2,341 Climbing FlightAware ADS-B
Mon 10:05:40 PM 32.9915 -96.8305 126° Southeast 307 353 9,300 1,756 Climbing FlightAware ADS-B
Mon 10:06:00 PM 32.9798 -96.8103 125° Southeast 315 362 9,700 1,469 Climbing FlightAware ADS-B
Mon 10:06:29 PM 32.9477 -96.7608 128° Southeast 331 381 10,500 1,440 Climbing FlightAware ADS-B
Mon 10:06:50 PM 32.9220 -96.7448 152° Southeast 339 390 10,900 1,241 Climbing FlightAware ADS-B
Mon 10:06:58 PM 32.9049 -96.7409 169° South 342 394 11,100 1,500 Climbing FlightAware ADS-B
Mon 10:07:10 PM 32.8846 -96.7419 182° South 348 400 11,400 1,347 Climbing FlightAware ADS-B
Mon 10:07:47 PM 32.8231 -96.7495 186° South 377 434 12,200 1,859 Climbing FlightAware ADS-B
Mon 10:08:21 PM 32.7646 -96.7573 186° South 384 442 13,600 2,374 Climbing FlightAware ADS-B
Mon 10:09:18 PM 32.6540 -96.7710 186° South 402 463 15,800 2,387 Climbing FlightAware ADS-B
Mon 10:09:54 PM 32.5860 -96.7790 186° South 406 467 17,300 2,333 Climbing FlightAware ADS-B
Mon 10:10:30 PM 32.5170 -96.7870 186° South 412 474 18,600 2,100 Climbing FlightAware ADS-B
Mon 10:10:54 PM 32.4760 -96.7920 186° South 412 474 19,400 2,129 Climbing FlightAware ADS-B
Mon 10:11:32 PM 32.4000 -96.8020 186° South 417 480 20,800 2,027 Climbing FlightAware ADS-B
Mon 10:12:08 PM 32.3310 -96.8100 186° South 421 484 21,900 1,765 Climbing FlightAware ADS-B
Mon 10:12:40 PM 32.2740 -96.8080 178° South 432 497 22,800 1,660 Climbing FlightAware ADS-B
Mon 10:12:55 PM 32.2400 -96.7990 167° South 445 512 23,200 1,585 Climbing FlightAware ADS-B
Mon 10:13:33 PM 32.1620 -96.7690 162° South 453 521 24,200 1,629 Climbing FlightAware ADS-B
Mon 10:14:05 PM 32.0970 -96.7440 162° South 456 525 25,100 1,433 Climbing FlightAware ADS-B
Mon 10:14:40 PM 32.0290 -96.7180 162° South 463 533 25,800 1,583 Climbing FlightAware ADS-B
Mon 10:15:17 PM 31.9510 -96.6880 162° South 461 531 27,000 1,565 Climbing FlightAware ADS-B
Mon 10:15:49 PM 31.8860 -96.6640 163° South 466 536 27,600 1,217 Climbing FlightAware ADS-B
Mon 10:16:26 PM 31.8110 -96.6340 161° South 473 544 28,400 1,216 Climbing FlightAware ADS-B
Mon 10:17:03 PM 31.7320 -96.6010 160° South 478 550 29,100 896 Climbing FlightAware ADS-B
Mon 10:17:33 PM 31.6680 -96.5750 161° South 488 562 29,400 1,313 Climbing FlightAware ADS-B
Mon 10:18:07 PM 31.5960 -96.5450 160° South 482 555 30,500 1,297 Climbing FlightAware ADS-B
Mon 10:18:47 PM 31.5140 -96.5120 161° South 479 551 31,000 395 Climbing FlightAware ADS-B
Mon 10:19:23 PM 31.4360 -96.4830 162° South 480 552 31,000  Level FlightAware ADS-B
Mon 10:19:55 PM 31.3680 -96.4560 161° South 483 556 31,000  Level FlightAware ADS-B
Mon 10:20:12 PM 31.3400 -96.4340 146° Southeast 504 580 31,000  Level FlightAware ADS-B
Mon 10:20:43 PM 31.2820 -96.3750 139° Southeast 510 587 31,000  Level FlightAware ADS-B
Mon 10:21:19 PM 31.2200 -96.3120 139° Southeast 513 590 31,000  Level FlightAware ADS-B
Mon 10:21:56 PM 31.1550 -96.2380 136° Southeast 516 594 31,000  Level FlightAware ADS-B
Mon 10:22:32 PM 31.0930 -96.1660 135° Southeast 518 596 31,000  Level FlightAware ADS-B
Mon 10:23:04 PM 31.0410 -96.1060 135° Southeast 515 593 31,000  Level FlightAware ADS-B
Mon 10:23:40 PM 30.9780 -96.0340 136° Southeast 515 593 31,000  Level FlightAware ADS-B
Mon 10:24:14 PM 30.9200 -95.9680 136° Southeast 511 588 31,000  Level FlightAware ADS-B
Mon 10:24:48 PM 30.8630 -95.9050 136° Southeast 509 586 31,000  Level FlightAware ADS-B
Mon 10:25:32 PM 30.7890 -95.8200 135° Southeast 507 583 31,000  Level FlightAware ADS-B
Mon 10:26:04 PM 30.7330 -95.7570 136° Southeast 508 585 31,000  Level FlightAware ADS-B
Mon 10:26:41 PM 30.6720 -95.6890 136° Southeast 506 582 31,000  Level FlightAware ADS-B
Mon 10:27:16 PM 30.6130 -95.6230 136° Southeast 499 574 31,000  Level FlightAware ADS-B
Mon 10:27:49 PM 30.5590 -95.5620 136° Southeast 497 572 31,000  Level FlightAware ADS-B
Mon 10:28:25 PM 30.4990 -95.4950 136° Southeast 495 570 31,000  Level FlightAware ADS-B
Mon 10:29:01 PM 30.4410 -95.4300 136° Southeast 496 571 31,000  Level FlightAware ADS-B
Mon 10:29:38 PM 30.3780 -95.3610 137° Southeast 498 573 31,000  Level FlightAware ADS-B
Mon 10:30:10 PM 30.3250 -95.3020 136° Southeast 500 575 31,000  Level FlightAware ADS-B
Mon 10:30:45 PM 30.2660 -95.2360 136° Southeast 501 577 31,000  Level FlightAware ADS-B
Mon 10:31:22 PM 30.2040 -95.1670 136° Southeast 500 575 31,000  Level FlightAware ADS-B
Mon 10:31:59 PM 30.1430 -95.0990 136° Southeast 502 578 31,000  Level FlightAware ADS-B
Mon 10:32:25 PM 30.0993 -95.0509 136° Southeast 502 578 31,000  Level FlightAware ADS-B
Mon 10:32:55 PM 30.0492 -94.9955 136° Southeast 503 579 31,000  Level FlightAware ADS-B
Mon 10:33:26 PM 29.9977 -94.9387 136° Southeast 504 580 31,000  Level FlightAware ADS-B
Mon 10:34:16 PM 29.9130 -94.8460 136° Southeast 504 580 31,000  Level FlightAware ADS-B
Mon 10:34:52 PM 29.8510 -94.7780 136° Southeast 504 580 31,000  Level FlightAware ADS-B
Mon 10:35:05 PM 29.8372 -94.7623 135° Southeast 504 580 31,000  Level FlightAware ADS-B
Mon 10:36:05 PM 29.7397 -94.6556 136° Southeast 496 571 31,000  Level FlightAware ADS-B
Mon 10:36:36 PM 29.6806 -94.5910 136° Southeast 491 565 31,000  Level FlightAware ADS-B
Mon 10:37:07 PM 29.6324 -94.5384 136° Southeast 490 564 31,000  Level FlightAware ADS-B
Mon 10:37:37 PM 29.5786 -94.4799 137° Southeast 494 568 31,000  Level FlightAware ADS-B
Mon 10:38:17 PM 29.5121 -94.4077 137° Southeast 501 577 31,000  Level FlightAware ADS-B
Mon 10:38:47 PM 29.4614 -94.3526 137° Southeast 501 577 31,000  Level FlightAware ADS-B
Mon 10:39:42 PM 29.3770 -94.2600 136° Southeast 500 575 31,000  Level FlightAware ADS-B
Mon 10:40:18 PM 29.3260 -94.2040 136° Southeast 500 575 31,000  Level FlightAware ADS-B
Mon 10:40:55 PM 29.2740 -94.1460 136° Southeast 500 575 31,000  Level FlightAware ADS-B
Mon 10:41:31 PM 29.2230 -94.0900 136° Southeast 500 575 31,000  Level FlightAware ADS-B
Mon 10:42:08 PM 29.1710 -94.0320 136° Southeast 500 575 31,000  Level FlightAware ADS-B
Mon 10:42:44 PM 29.1200 -93.9750 136° Southeast 500 575 31,000  Level FlightAware ADS-B
Mon 10:43:20 PM 29.0690 -93.9190 136° Southeast 500 575 31,000  Level FlightAware ADS-B
Mon 10:43:56 PM 29.0180 -93.8630 136° Southeast 500 575 31,000  Level FlightAware ADS-B
Mon 10:44:33 PM 28.9660 -93.8050 136° Southeast 500 575 31,000  Level FlightAware ADS-B
Mon 10:45:10 PM 28.9130 -93.7470 136° Southeast 500 575 31,000  Level FlightAware ADS-B
Mon 10:45:46 PM 28.8620 -93.6910 136° Southeast 500 575 31,000  Level FlightAware ADS-B
Mon 10:46:22 PM 28.8110 -93.6350 136° Southeast 500 575 31,000  Level FlightAware ADS-B
Mon 10:46:58 PM 28.7600 -93.5790 136° Southeast 500 575 31,000  Level FlightAware ADS-B
Mon 10:47:34 PM 28.7100 -93.5230 136° Southeast 500 575 31,000  Level FlightAware ADS-B
Mon 10:48:10 PM 28.6590 -93.4670 136° Southeast 500 575 31,000  Level FlightAware ADS-B
Mon 10:48:48 PM 28.6050 -93.4080 136° Southeast 500 575 31,000 -56 Level FlightAware ADS-B
Mon 10:49:57 PM 28.3617 -93.1764 136° Southeast 492 566 30,900 -46 Descending Houston Center
Mon 10:50:58 PM 28.2403 -93.0458 137° Southeast 500 575 30,900 49 Level Houston Center
Mon 10:51:59 PM 28.1397 -92.9428 138° Southeast 490 564 31,000  Climbing Houston Center
Mon 10:53:00 PM 28.0400 -92.8372 137° Southeast 492 566 30,900  Descending Houston Center
Mon 10:54:01 PM 27.9392 -92.7353 138° Southeast 488 562 31,000  Climbing Houston Center
Mon 10:55:02 PM 27.8386 -92.6303 137° Southeast 491 565 30,900  Descending Houston Center
Mon 10:56:03 PM 27.7381 -92.5264 138° Southeast 491 565 31,000 49 Climbing Houston Center
Mon 10:57:04 PM 27.6381 -92.4242 138° Southeast 486 559 31,000 -50 Level Houston Center
Mon 10:58:04 PM 27.5378 -92.3197 137° Southeast 490 564 30,900  Descending Houston Center
Mon 10:59:05 PM 27.4358 -92.2164 138° Southeast 492 566 31,000 49 Climbing Houston Center
Mon 11:00:06 PM 27.3356 -92.1122 137° Southeast 491 565 31,000 -49 Level Houston Center
Mon 11:01:07 PM 27.2350 -92.0117 138° Southeast 488 562 30,900 55 Descending Houston Center
Mon 11:03:00 PM 27.0438 -91.8361 145° Southeast  Level FlightAware Approximate
Mon 11:10:00 PM 26.2936 -91.2389 145° Southeast  Level FlightAware Approximate
Mon 11:11:00 PM 26.1863 -91.1542 145° Southeast  Level FlightAware Approximate
Mon 11:12:00 PM 26.0788 -91.0697 145° Southeast  Level FlightAware Approximate
Mon 11:13:00 PM 25.9713 -90.9854 145° Southeast  Level FlightAware Approximate
Mon 11:14:00 PM 25.8638 -90.9012 145° Southeast  Level FlightAware Approximate
Mon 11:15:00 PM 25.7561 -90.8172 145° Southeast  Level FlightAware Approximate
Mon 11:16:00 PM 25.6485 -90.7333 145° Southeast  Level FlightAware Approximate
Mon 11:17:00 PM 25.5408 -90.6496 145° Southeast  Level FlightAware Approximate
Mon 11:18:00 PM 25.4331 -90.5661 145° Southeast  Level FlightAware Approximate
Mon 11:19:00 PM 25.3253 -90.4827 145° Southeast  Level FlightAware Approximate
Mon 11:20:00 PM 25.2174 -90.3994 145° Southeast  Level FlightAware Approximate
Mon 11:21:00 PM 25.1096 -90.3163 145° Southeast  Level FlightAware Approximate
Mon 11:22:00 PM 25.0016 -90.2333 145° Southeast  Level FlightAware Approximate
Mon 11:23:00 PM 24.8937 -90.1505 145° Southeast  Level FlightAware Approximate
Mon 11:24:00 PM 24.7856 -90.0678 145° Southeast  Level FlightAware Approximate
Mon 11:25:00 PM 24.6776 -89.9852 145° Southeast  Level FlightAware Approximate
Mon 11:26:00 PM 24.5695 -89.9028 145° Southeast  Level FlightAware Approximate
Mon 11:27:00 PM 24.4713 -89.8099 119° Southeast  Level FlightAware Approximate
Mon 11:28:00 PM 24.4069 -89.6839 119° Southeast  Level FlightAware Approximate
Mon 11:29:00 PM 24.3423 -89.5582 119° Southeast  Level FlightAware Approximate
Mon 11:30:00 PM 24.2776 -89.4325 119° Southeast  Level FlightAware Approximate
Mon 11:31:00 PM 24.2128 -89.3070 119° Southeast  Level FlightAware Approximate
Mon 11:32:00 PM 24.1489 -89.1810 119° Southeast  Level FlightAware Approximate
Mon 11:33:00 PM 24.0857 -89.0546 119° Southeast  Level FlightAware Approximate
Mon 11:34:00 PM 24.0222 -88.9285 120° Southeast  Level FlightAware Approximate
Mon 11:35:00 PM 23.9572 -88.8033 120° Southeast  Level FlightAware Approximate
Mon 11:36:00 PM 23.8921 -88.6783 120° Southeast  Level FlightAware Approximate
Mon 11:36:42 PM 23.7780 -88.4380 120° Southeast 508 585 33,000  Level FlightAware ADS-B
Mon 11:37:19 PM 23.7370 -88.3570 119° Southeast 508 585 33,000  Level FlightAware ADS-B
Mon 11:37:48 PM 23.7020 -88.2890 119° Southeast 508 585 33,000  Level FlightAware ADS-B
Mon 11:38:30 PM 23.6540 -88.1960 119° Southeast 508 585 33,000  Level FlightAware ADS-B
Mon 11:39:25 PM 23.5970 -88.0830 119° Southeast 504 580 33,000  Level FlightAware ADS-B
Mon 11:40:00 PM 23.5520 -87.9970 120° Southeast 500 575 33,000  Level FlightAware ADS-B
Mon 11:40:30 PM 23.5180 -87.9310 119° Southeast 499 574 33,000  Level FlightAware ADS-B
Mon 11:41:10 PM 23.4730 -87.8440 119° Southeast 499 574 33,000  Level FlightAware ADS-B
Mon 11:41:48 PM 23.4290 -87.7600 120° Southeast 498 573 33,000  Level FlightAware ADS-B
Mon 11:42:22 PM 23.3950 -87.6900 118° Southeast 500 575 33,000  Level FlightAware ADS-B
Mon 11:43:06 PM 23.3470 -87.5950 119° Southeast 502 578 33,000  Level FlightAware ADS-B
Mon 11:43:43 PM 23.3050 -87.5200 121° Southeast 501 577 33,000  Level FlightAware ADS-B
Mon 11:44:09 PM 23.2600 -87.4690 134° Southeast 496 571 33,000  Level FlightAware ADS-B
Mon 11:44:35 PM 23.2060 -87.4280 145° Southeast 491 565 33,000  Level FlightAware ADS-B
Mon 11:45:21 PM 23.1270 -87.3740 148° Southeast 492 566 33,000  Level FlightAware ADS-B
Mon 11:45:56 PM 23.0580 -87.3280 148° Southeast 494 568 33,000  Level FlightAware ADS-B
Mon 11:46:32 PM 22.9920 -87.2840 148° Southeast 493 567 33,000  Level FlightAware ADS-B
Mon 11:47:12 PM 22.9070 -87.2260 148° Southeast 492 566 33,000  Level FlightAware ADS-B
Mon 11:47:49 PM 22.8410 -87.1790 147° Southeast 493 567 33,000  Level FlightAware ADS-B
Mon 11:48:24 PM 22.7680 -87.1270 147° Southeast 493 567 33,000  Level FlightAware ADS-B
Mon 11:49:10 PM 22.6850 -87.0680 147° Southeast 494 568 33,000  Level FlightAware ADS-B
Mon 11:49:54 PM 22.5960 -87.0050 147° Southeast 494 568 33,000  Level FlightAware ADS-B
Mon 11:50:25 PM 22.5380 -86.9640 147° Southeast 494 568 33,000  Level FlightAware ADS-B
Mon 11:51:04 PM 22.4610 -86.9100 147° Southeast 494 568 33,000  Level FlightAware ADS-B
Mon 11:51:41 PM 22.3960 -86.8640 147° Southeast 494 568 33,000  Level FlightAware ADS-B
Mon 11:52:20 PM 22.3150 -86.8080 147° Southeast 495 570 33,000  Level FlightAware ADS-B
Mon 11:52:52 PM 22.2540 -86.7650 147° Southeast 495 570 33,000  Level FlightAware ADS-B
Mon 11:53:33 PM 22.1790 -86.7120 147° Southeast 495 570 33,000  Level FlightAware ADS-B
Mon 11:54:05 PM 22.1190 -86.6700 147° Southeast 495 570 33,000  Level FlightAware ADS-B
Mon 11:54:39 PM 22.0510 -86.6220 147° Southeast 495 570 33,000  Level FlightAware ADS-B
Mon 11:55:15 PM 21.9790 -86.5720 147° Southeast 493 567 33,000  Level FlightAware ADS-B
Mon 11:55:51 PM 21.9170 -86.5290 147° Southeast 492 566 33,000  Level FlightAware ADS-B
Mon 11:56:27 PM 21.8430 -86.4770 147° Southeast 493 567 33,000  Level FlightAware ADS-B
Mon 11:57:03 PM 21.7730 -86.4280 147° Southeast 494 568 33,000  Level FlightAware ADS-B
Mon 11:57:46 PM 21.6890 -86.3700 147° Southeast 494 568 33,000  Level FlightAware ADS-B
Mon 11:58:19 PM 21.6280 -86.3280 147° Southeast 493 567 33,000  Level FlightAware ADS-B
Mon 11:58:59 PM 21.5500 -86.2740 147° Southeast 495 570 33,000  Level FlightAware ADS-B
Mon 11:59:35 PM 21.4810 -86.2260 147° Southeast 494 568 33,000  Level FlightAware ADS-B
Tue 12:00:09 AM 21.4130 -86.1790 147° Southeast 495 570 33,000  Level FlightAware ADS-B
Tue 12:00:45 AM 21.3400 -86.1280 147° Southeast 494 568 33,000  Level FlightAware ADS-B
Tue 12:01:23 AM 21.2670 -86.0780 147° Southeast 493 567 33,000  Level FlightAware ADS-B
Tue 12:01:55 AM 21.2060 -86.0360 147° Southeast 493 567 33,000  Level FlightAware ADS-B
Tue 12:02:30 AM 21.1390 -85.9900 147° Southeast 492 566 33,000  Level FlightAware ADS-B
Tue 12:03:05 AM 21.0720 -85.9440 147° Southeast 491 565 33,000  Level FlightAware ADS-B
Tue 12:03:41 AM 21.0020 -85.8960 147° Southeast 489 563 33,000  Level FlightAware ADS-B
Tue 12:04:17 AM 20.9340 -85.8490 147° Southeast 486 559 33,000  Level FlightAware ADS-B
Tue 12:04:49 AM 20.8730 -85.8070 147° Southeast 488 562 33,000  Level FlightAware ADS-B
Tue 12:05:27 AM 20.8010 -85.7580 148° Southeast 489 563 33,000  Level FlightAware ADS-B
Tue 12:05:59 AM 20.7400 -85.7160 147° Southeast 489 563 33,000  Level FlightAware ADS-B
Tue 12:06:35 AM 20.6710 -85.6690 147° Southeast 488 562 33,000  Level FlightAware ADS-B
Tue 12:07:11 AM 20.6020 -85.6220 147° Southeast 487 560 33,000  Level FlightAware ADS-B
Tue 12:07:47 AM 20.5340 -85.5750 147° Southeast 487 560 33,000  Level FlightAware ADS-B
Tue 12:08:21 AM 20.4700 -85.5320 148° Southeast 487 560 33,000  Level FlightAware ADS-B
Tue 12:08:57 AM 20.4020 -85.4850 147° Southeast 485 558 33,000  Level FlightAware ADS-B
Tue 12:09:29 AM 20.3390 -85.4430 148° Southeast 486 559 33,000  Level FlightAware ADS-B
Tue 12:10:05 AM 20.2720 -85.3970 147° Southeast 487 560 33,000  Level FlightAware ADS-B
Tue 12:10:33 AM 20.2220 -85.3590 145° Southeast 485 558 33,000  Level FlightAware ADS-B
Tue 12:10:49 AM 20.1990 -85.3300 130° Southeast 484 557 33,000  Level FlightAware ADS-B
Tue 12:11:05 AM 20.1820 -85.2950 117° Southeast 483 556 33,000  Level FlightAware ADS-B
Tue 12:12:00 AM 20.1550 -85.1800 104° East 485 558 33,000  Level FlightAware ADS-B
Tue 12:12:36 AM 20.1390 -85.1090 103° East 485 558 33,000  Level FlightAware ADS-B
Tue 12:13:24 AM 20.1130 -84.9810 102° East 487 560 33,000  Level FlightAware ADS-B
Tue 12:14:00 AM 20.0990 -84.9090 102° East 487 560 33,000  Level FlightAware ADS-B
Tue 12:14:36 AM 20.0850 -84.8380 102° East 487 560 33,000  Level FlightAware ADS-B
Tue 12:15:12 AM 20.0700 -84.7660 102° East 487 560 33,000  Level FlightAware ADS-B
Tue 12:15:48 AM 20.0560 -84.6940 102° East 487 560 33,000  Level FlightAware ADS-B
Tue 12:16:25 AM 20.0410 -84.6200 102° East 487 560 33,000  Level FlightAware ADS-B
Tue 12:17:01 AM 20.0270 -84.5480 102° East 487 560 33,000  Level FlightAware ADS-B
Tue 12:17:38 AM 20.0120 -84.4750 102° East 487 560 33,000  Level FlightAware ADS-B
Tue 12:18:16 AM 19.9970 -84.3990 102° East 487 560 33,000  Level FlightAware ADS-B
Tue 12:18:52 AM 19.9830 -84.3270 102° East 487 560 33,000  Level FlightAware ADS-B
Tue 12:19:29 AM 19.9680 -84.2530 102° East 487 560 33,000  Level FlightAware ADS-B
Tue 12:20:05 AM 19.9540 -84.1820 102° East 487 560 33,000  Level FlightAware ADS-B
Tue 12:20:41 AM 19.9390 -84.1100 102° East 487 560 33,000  Level FlightAware ADS-B
Tue 12:21:18 AM 19.9250 -84.0360 101° East 487 560 33,000  Level FlightAware ADS-B
Tue 12:21:54 AM 19.9100 -83.9640 102° East 487 560 33,000  Level FlightAware ADS-B
Tue 12:22:30 AM 19.8960 -83.8930 102° East 487 560 33,000 -21 Level FlightAware ADS-B
Tue 12:25:00 AM 19.7873 -83.5631 109° East  Level FlightAware Approximate
Tue 12:26:00 AM 19.7436 -83.4313 109° East  Level FlightAware Approximate
Tue 12:27:00 AM 19.6998 -83.2995 109° East  Level FlightAware Approximate
Tue 12:28:00 AM 19.6560 -83.1681 109° East  Level FlightAware Approximate
Tue 12:29:00 AM 19.6199 -83.0318 105° East  Level FlightAware Approximate
Tue 12:30:00 AM 19.5856 -82.8973 105° East  Level FlightAware Approximate
Tue 12:31:00 AM 19.5511 -82.7628 105° East  Level FlightAware Approximate
Tue 12:32:00 AM 19.5166 -82.6284 105° East  Level FlightAware Approximate
Tue 12:33:00 AM 19.4820 -82.4941 105° East  Level FlightAware Approximate
Tue 12:34:00 AM 19.4472 -82.3598 105° East  Level FlightAware Approximate
Tue 12:35:00 AM 19.4124 -82.2255 105° East  Level FlightAware Approximate
Tue 12:36:00 AM 19.3775 -82.0913 105° East  Level FlightAware Approximate
Tue 12:37:00 AM 19.3429 -81.9571 105° East  Level FlightAware Approximate
Tue 12:38:00 AM 19.3084 -81.8228 105° East  Level FlightAware Approximate
Tue 12:39:00 AM 19.2739 -81.6886 105° East  Level FlightAware Approximate
Tue 12:40:00 AM 19.2392 -81.5545 105° East  Level FlightAware Approximate
Tue 12:41:00 AM 19.2045 -81.4204 105° East  Level FlightAware Approximate
Tue 12:42:00 AM 19.1696 -81.2863 105° East  Level FlightAware Approximate
Tue 12:43:00 AM 19.1347 -81.1524 105° East  Level FlightAware Approximate
Tue 12:44:00 AM 19.0996 -81.0184 105° East  Level FlightAware Approximate
Tue 12:45:00 AM 19.0645 -80.8846 106° East  Level FlightAware Approximate
Tue 12:46:00 AM 19.0292 -80.7508 106° East  Level FlightAware Approximate
Tue 12:47:00 AM 18.9939 -80.6170 106° East  Level FlightAware Approximate
Tue 12:48:00 AM 18.9585 -80.4833 106° East  Level FlightAware Approximate
Tue 12:49:00 AM 18.9230 -80.3497 106° East  Level FlightAware Approximate
Tue 12:50:00 AM 18.8873 -80.2161 106° East  Level FlightAware Approximate
Tue 12:51:00 AM 18.8516 -80.0826 106° East  Level FlightAware Approximate
Tue 12:52:00 AM 18.8158 -79.9491 106° East  Level FlightAware Approximate
Tue 12:53:00 AM 18.7799 -79.8157 106° East  Level FlightAware Approximate
Tue 12:54:00 AM 18.7443 -79.6822 106° East  Level FlightAware Approximate
Tue 12:55:00 AM 18.7089 -79.5487 106° East  Level FlightAware Approximate
Tue 12:56:00 AM 18.6734 -79.4153 106° East  Level FlightAware Approximate
Tue 12:57:00 AM 18.6378 -79.2819 106° East  Level FlightAware Approximate
Tue 12:58:00 AM 18.6021 -79.1486 106° East  Level FlightAware Approximate
Tue 12:59:00 AM 18.5663 -79.0153 107° East  Level FlightAware Approximate
Tue 01:00:00 AM 18.5288 -78.8826 107° East  Level FlightAware Approximate
Tue 01:01:00 AM 18.4912 -78.7499 107° East  Level FlightAware Approximate
Tue 01:02:00 AM 18.4536 -78.6173 107° East  Level FlightAware Approximate
Tue 01:03:00 AM 18.4158 -78.4847 107° East  Level FlightAware Approximate
Tue 01:04:00 AM 18.3780 -78.3522 107° East  Level FlightAware Approximate
Tue 01:05:00 AM 18.3400 -78.2198 107° East  Level FlightAware Approximate
Tue 01:06:00 AM 18.3020 -78.0874 107° East  Level FlightAware Approximate
Tue 01:07:00 AM 18.2639 -77.9551 107° East  Level FlightAware Approximate
Tue 01:08:00 AM 18.2257 -77.8228 107° East  Level FlightAware Approximate
Tue 01:09:00 AM 18.1874 -77.6906 107° East  Level FlightAware Approximate
Tue 01:10:00 AM 18.1490 -77.5585 107° East  Level FlightAware Approximate
Tue 01:11:00 AM 18.1105 -77.4264 107° East  Level FlightAware Approximate
Tue 01:12:00 AM 18.0719 -77.2943 107° East  Level FlightAware Approximate
Tue 01:13:00 AM 18.0332 -77.1624 107° East  Level FlightAware Approximate
Tue 01:14:00 AM 17.9945 -77.0304 107° East  Level FlightAware Approximate
Tue 01:15:00 AM 17.9556 -76.8986 107° East  Level FlightAware Approximate
Tue 01:16:00 AM 17.9167 -76.7668 107° East  Level FlightAware Approximate
Tue 01:17:00 AM 17.8334 -76.6602 129° Southeast  Level FlightAware Approximate
Tue 01:18:00 AM 17.7500 -76.5537 129° Southeast  Level FlightAware Approximate
Tue 01:19:00 AM 17.6665 -76.4473 129° Southeast  Level FlightAware Approximate
Tue 01:20:00 AM 17.5829 -76.3410 129° Southeast  Level FlightAware Approximate
Tue 01:21:00 AM 17.4993 -76.2348 130° Southeast  Level FlightAware Approximate
Tue 01:22:00 AM 17.4157 -76.1288 130° Southeast  Level FlightAware Approximate
Tue 01:23:00 AM 17.3314 -76.0232 130° Southeast  Level FlightAware Approximate
Tue 01:24:00 AM 17.2464 -75.9184 130° Southeast  Level FlightAware Approximate
Tue 01:25:00 AM 17.1613 -75.8138 130° Southeast  Level FlightAware Approximate
Tue 01:26:00 AM 17.0762 -75.7092 130° Southeast  Level FlightAware Approximate
Tue 01:27:00 AM 16.9910 -75.6047 130° Southeast  Level FlightAware Approximate
Tue 01:28:00 AM 16.9058 -75.5003 130° Southeast  Level FlightAware Approximate
Tue 01:29:00 AM 16.8205 -75.3960 130° Southeast  Level FlightAware Approximate
Tue 01:30:00 AM 16.7351 -75.2917 131° Southeast  Level FlightAware Approximate
Tue 01:31:00 AM 16.6497 -75.1876 131° Southeast  Level FlightAware Approximate
Tue 01:32:00 AM 16.5643 -75.0836 131° Southeast  Level FlightAware Approximate
Tue 01:33:00 AM 16.4788 -74.9797 131° Southeast  Level FlightAware Approximate
Tue 01:34:00 AM 16.3932 -74.8758 131° Southeast  Level FlightAware Approximate
Tue 01:35:00 AM 16.3076 -74.7721 131° Southeast  Level FlightAware Approximate
Tue 01:36:00 AM 16.2220 -74.6684 131° Southeast  Level FlightAware Approximate
Tue 01:37:00 AM 16.1362 -74.5648 131° Southeast  Level FlightAware Approximate
Tue 01:38:00 AM 16.0505 -74.4614 131° Southeast  Level FlightAware Approximate
Tue 01:39:00 AM 15.9647 -74.3580 131° Southeast  Level FlightAware Approximate
Tue 01:40:00 AM 15.8788 -74.2547 131° Southeast  Level FlightAware Approximate
Tue 01:41:00 AM 15.7929 -74.1515 131° Southeast  Level FlightAware Approximate
Tue 01:42:00 AM 15.7070 -74.0483 131° Southeast  Level FlightAware Approximate
Tue 01:43:00 AM 15.6235 -73.9432 128° Southeast  Level FlightAware Approximate
Tue 01:44:00 AM 15.5421 -73.8362 128° Southeast  Level FlightAware Approximate
Tue 01:45:00 AM 15.4608 -73.7295 128° Southeast  Level FlightAware Approximate
Tue 01:46:00 AM 15.3794 -73.6229 128° Southeast  Level FlightAware Approximate
Tue 01:47:00 AM 15.2980 -73.5164 128° Southeast  Level FlightAware Approximate
Tue 01:48:00 AM 15.2165 -73.4099 128° Southeast  Level FlightAware Approximate
Tue 01:49:00 AM 15.1350 -73.3036 128° Southeast  Level FlightAware Approximate
Tue 01:50:00 AM 15.0535 -73.1973 128° Southeast  Level FlightAware Approximate
Tue 01:51:00 AM 14.9719 -73.0911 128° Southeast  Level FlightAware Approximate
Tue 01:52:00 AM 14.8902 -72.9850 129° Southeast  Level FlightAware Approximate
Tue 01:53:00 AM 14.8085 -72.8789 129° Southeast  Level FlightAware Approximate
Tue 01:54:00 AM 14.7267 -72.7730 129° Southeast  Level FlightAware Approximate
Tue 01:55:00 AM 14.6449 -72.6671 129° Southeast  Level FlightAware Approximate
Tue 01:56:00 AM 14.5631 -72.5613 129° Southeast  Level FlightAware Approximate
Tue 01:56:50 AM 13.9920 -71.7680 129° Southeast 489 563 31,000  Level FlightAware ADS-B
Tue 01:57:00 AM 14.4812 -72.4556 129° Southeast  Level FlightAware Approximate
Tue 01:57:29 AM 13.9330 -71.6880 127° Southeast 488 562 31,000  Level FlightAware ADS-B
Tue 01:58:10 AM 13.8760 -71.6100 127° Southeast 488 562 31,000  Level FlightAware ADS-B
Tue 01:58:49 AM 13.8220 -71.5370 127° Southeast 490 564 31,000  Level FlightAware ADS-B
Tue 01:59:20 AM 13.7790 -71.4780 127° Southeast 490 564 31,000  Level FlightAware ADS-B
Tue 01:59:59 AM 13.7250 -71.4040 127° Southeast 490 564 31,000  Level FlightAware ADS-B
Tue 02:00:30 AM 13.6830 -71.3460 127° Southeast 490 564 31,000  Level FlightAware ADS-B
Tue 02:01:05 AM 13.6340 -71.2800 127° Southeast 491 565 31,000  Level FlightAware ADS-B
Tue 02:01:41 AM 13.5850 -71.2130 127° Southeast 491 565 31,000  Level FlightAware ADS-B
Tue 02:02:20 AM 13.5290 -71.1380 128° Southeast 493 567 31,000  Level FlightAware ADS-B
Tue 02:02:51 AM 13.4870 -71.0810 127° Southeast 495 570 31,000  Level FlightAware ADS-B
Tue 02:03:25 AM 13.4380 -71.0150 127° Southeast 496 571 31,000  Level FlightAware ADS-B
Tue 02:04:01 AM 13.3890 -70.9480 127° Southeast 502 578 31,000  Level FlightAware ADS-B
Tue 02:04:35 AM 13.3410 -70.8830 127° Southeast 502 578 31,000  Level FlightAware ADS-B
Tue 02:05:11 AM 13.2910 -70.8150 127° Southeast 496 571 31,000  Level FlightAware ADS-B
Tue 02:05:46 AM 13.2400 -70.7470 128° Southeast 501 577 31,000  Level FlightAware ADS-B
Tue 02:06:22 AM 13.1910 -70.6810 127° Southeast 496 571 31,000  Level FlightAware ADS-B
Tue 02:06:56 AM 13.1430 -70.6150 127° Southeast 495 570 31,000  Level FlightAware ADS-B
Tue 02:07:32 AM 13.0930 -70.5480 127° Southeast 494 568 31,000  Level FlightAware ADS-B
Tue 02:08:06 AM 13.0460 -70.4850 127° Southeast 494 568 31,000  Level FlightAware ADS-B
Tue 02:08:42 AM 12.9950 -70.4170 128° Southeast 494 568 31,000  Level FlightAware ADS-B
Tue 02:09:16 AM 12.9470 -70.3530 128° Southeast 494 568 31,000  Level FlightAware ADS-B
Tue 02:09:52 AM 12.8970 -70.2850 127° Southeast 494 568 31,000  Level FlightAware ADS-B
Tue 02:10:26 AM 12.8490 -70.2200 127° Southeast 493 567 31,000  Level FlightAware ADS-B
Tue 02:11:07 AM 12.7920 -70.1440 128° Southeast 494 568 31,000  Level FlightAware ADS-B
Tue 02:11:41 AM 12.7440 -70.0790 127° Southeast 494 568 31,000  Level FlightAware ADS-B
Tue 02:12:17 AM 12.6940 -70.0120 127° Southeast 494 568 31,000  Level FlightAware ADS-B
Tue 02:12:52 AM 12.6440 -69.9460 128° Southeast 494 568 31,000  Level FlightAware ADS-B
Tue 02:13:28 AM 12.5940 -69.8790 127° Southeast 493 567 31,000  Level FlightAware ADS-B
Tue 02:14:02 AM 12.5470 -69.8160 127° Southeast 491 565 31,000  Level FlightAware ADS-B
Tue 02:14:38 AM 12.4960 -69.7480 128° Southeast 490 564 31,000  Level FlightAware ADS-B
Tue 02:15:17 AM 12.4420 -69.6760 128° Southeast 489 563 31,000  Level FlightAware ADS-B
Tue 02:15:47 AM 12.3990 -69.6180 127° Southeast 489 563 31,000  Level FlightAware ADS-B
Tue 02:16:23 AM 12.3500 -69.5530 128° Southeast 490 564 31,000  Level FlightAware ADS-B
Tue 02:16:57 AM 12.3020 -69.4890 128° Southeast 491 565 31,000  Level FlightAware ADS-B
Tue 02:17:33 AM 12.2530 -69.4230 127° Southeast 491 565 31,000  Level FlightAware ADS-B
Tue 02:18:09 AM 12.2030 -69.3570 128° Southeast 491 565 31,000  Level FlightAware ADS-B
Tue 02:18:44 AM 12.1530 -69.2900 127° Southeast 491 565 31,000  Level FlightAware ADS-B
Tue 02:19:18 AM 12.1040 -69.2260 128° Southeast 490 564 31,000  Level FlightAware ADS-B
Tue 02:19:54 AM 12.0550 -69.1600 127° Southeast 491 565 31,000  Level FlightAware ADS-B
Tue 02:20:28 AM 12.0070 -69.0960 127° Southeast 498 573 31,000  Level FlightAware ADS-B
Tue 02:21:04 AM 11.9570 -69.0300 128° Southeast 500 575 31,000  Level FlightAware ADS-B
Tue 02:21:38 AM 11.9080 -68.9650 128° Southeast 500 575 31,000  Level FlightAware ADS-B
Tue 02:22:14 AM 11.8580 -68.8990 128° Southeast 499 574 31,000  Level FlightAware ADS-B
Tue 02:22:48 AM 11.8140 -68.8410 128° Southeast 499 574 31,000  Level FlightAware ADS-B
Tue 02:23:24 AM 11.7580 -68.7700 129° Southeast 498 573 31,000  Level FlightAware ADS-B
Tue 02:23:53 AM 11.7070 -68.7260 140° Southeast 491 565 31,000  Level FlightAware ADS-B
Tue 02:24:29 AM 11.6340 -68.6840 151° Southeast 499 574 31,000  Level FlightAware ADS-B
Tue 02:25:04 AM 11.5630 -68.6430 151° Southeast 498 573 31,000  Level FlightAware ADS-B
Tue 02:25:35 AM 11.5030 -68.6070 150° Southeast 491 565 31,000  Level FlightAware ADS-B
Tue 02:25:55 AM 11.4670 -68.5750 139° Southeast 493 567 31,000  Level FlightAware ADS-B
Tue 02:26:34 AM 11.4090 -68.5030 129° Southeast 500 575 31,000  Level FlightAware ADS-B
Tue 02:27:05 AM 11.3660 -68.4460 128° Southeast 499 574 31,000  Level FlightAware ADS-B
Tue 02:27:44 AM 11.3110 -68.3720 127° Southeast 494 568 31,000  Level FlightAware ADS-B
Tue 02:28:15 AM 11.2690 -68.3150 127° Southeast 492 566 31,000  Level FlightAware ADS-B
Tue 02:28:54 AM 11.2130 -68.2410 128° Southeast 494 568 31,000  Level FlightAware ADS-B
Tue 02:29:30 AM 11.1640 -68.1750 127° Southeast 494 568 31,000  Level FlightAware ADS-B
Tue 02:30:00 AM 11.1210 -68.1180 128° Southeast 499 574 31,000  Level FlightAware ADS-B
Tue 02:30:36 AM 11.0710 -68.0520 128° Southeast 494 568 31,000  Level FlightAware ADS-B
Tue 02:31:15 AM 11.0150 -67.9780 128° Southeast 494 568 31,000  Level FlightAware ADS-B
Tue 02:31:46 AM 10.9730 -67.9210 127° Southeast 494 568 31,000  Level FlightAware ADS-B
Tue 02:32:25 AM 10.9170 -67.8470 128° Southeast 493 567 31,000  Level FlightAware ADS-B
Tue 02:33:01 AM 10.8680 -67.7820 128° Southeast 490 564 31,000  Level FlightAware ADS-B
Tue 02:33:30 AM 10.8270 -67.7270 127° Southeast 486 559 31,000  Level FlightAware ADS-B
Tue 02:34:06 AM 10.7780 -67.6630 128° Southeast 488 562 31,000  Level FlightAware ADS-B
Tue 02:34:45 AM 10.7230 -67.5890 127° Southeast 491 565 31,000  Level FlightAware ADS-B
Tue 02:35:16 AM 10.6800 -67.5320 128° Southeast 491 565 31,000  Level FlightAware ADS-B
Tue 02:35:50 AM 10.6320 -67.4680 127° Southeast 492 566 31,000  Level FlightAware ADS-B
Tue 02:36:26 AM 10.5820 -67.4030 128° Southeast 488 562 31,000  Level FlightAware ADS-B
Tue 02:37:06 AM 10.5260 -67.3290 128° Southeast 486 559 31,000  Level FlightAware ADS-B
Tue 02:37:37 AM 10.4830 -67.2720 127° Southeast 486 559 31,000  Level FlightAware ADS-B
Tue 02:38:12 AM 10.4350 -67.2070 127° Southeast 486 559 31,000  Level FlightAware ADS-B
Tue 02:38:47 AM 10.3870 -67.1450 128° Southeast 486 559 31,000  Level FlightAware ADS-B
Tue 02:39:22 AM 10.3390 -67.0810 127° Southeast 483 556 31,000  Level FlightAware ADS-B
Tue 02:39:57 AM 10.2910 -67.0180 128° Southeast 483 556 31,000  Level FlightAware ADS-B
Tue 02:40:32 AM 10.2410 -66.9520 128° Southeast 483 556 31,000  Level FlightAware ADS-B
Tue 02:41:23 AM 10.1710 -66.8600 128° Southeast 482 555 31,000  Level FlightAware ADS-B
Tue 02:41:58 AM 10.1260 -66.8000 127° Southeast 483 556 31,000  Level FlightAware ADS-B
Tue 02:42:50 AM 10.0610 -66.7120 127° Southeast 481 554 31,000  Level FlightAware ADS-B
Tue 02:43:27 AM 10.0200 -66.6550 126° Southeast 481 554 31,000  Level FlightAware ADS-B
Tue 02:44:03 AM 9.9800 -66.5990 126° Southeast 481 554 31,000  Level FlightAware ADS-B
Tue 02:44:39 AM 9.9400 -66.5430 126° Southeast 481 554 31,000  Level FlightAware ADS-B
Tue 02:45:15 AM 9.9000 -66.4870 126° Southeast 481 554 31,000  Level FlightAware ADS-B
Tue 02:45:40 AM 9.8720 -66.4480 126° Southeast 481 554 31,000  Level FlightAware ADS-B
Tue 02:46:16 AM 9.8320 -66.3920 126° Southeast 481 554 31,000  Level FlightAware ADS-B
Tue 02:46:52 AM 9.7920 -66.3360 126° Southeast 481 554 31,000  Level FlightAware ADS-B
Tue 02:47:28 AM 9.7520 -66.2800 126° Southeast 481 554 31,000  Level FlightAware ADS-B
Tue 02:48:04 AM 9.7120 -66.2240 126° Southeast 481 554 31,000  Level FlightAware ADS-B
Tue 02:48:40 AM 9.6720 -66.1690 126° Southeast 481 554 31,000  Level FlightAware ADS-B
Tue 02:49:16 AM 9.6320 -66.1130 126° Southeast 481 554 31,000  Level FlightAware ADS-B
Tue 02:49:52 AM 9.5920 -66.0570 126° Southeast 481 554 31,000  Level FlightAware ADS-B
Tue 02:50:28 AM 9.5520 -66.0010 126° Southeast 481 554 31,000  Level FlightAware ADS-B
Tue 02:51:04 AM 9.5120 -65.9450 126° Southeast 481 554 31,000  Level FlightAware ADS-B
Tue 02:51:41 AM 9.4700 -65.8880 127° Southeast 481 554 31,000  Level FlightAware ADS-B
Tue 02:52:18 AM 9.4290 -65.8300 126° Southeast 481 554 31,000 17 Level FlightAware ADS-B
Tue 02:54:00 AM 9.2350 -65.7181 150° Southeast  Level Estimated
Tue 02:55:00 AM 9.1209 -65.6523 150° Southeast  Level Estimated
Tue 02:56:00 AM 9.0068 -65.5866 150° Southeast  Level Estimated
Tue 02:57:00 AM 8.8926 -65.5209 150° Southeast  Level Estimated
Tue 02:58:00 AM 8.7785 -65.4553 150° Southeast  Level Estimated
Tue 02:59:00 AM 8.6643 -65.3896 150° Southeast  Level Estimated
Tue 03:00:00 AM 8.5501 -65.3241 150° Southeast  Level Estimated
Tue 03:01:00 AM 8.4359 -65.2585 150° Southeast  Level Estimated
Tue 03:02:00 AM 8.3217 -65.1930 150° Southeast  Level Estimated
Tue 03:03:00 AM 8.2075 -65.1276 150° Southeast  Level Estimated
Tue 03:04:00 AM 8.0933 -65.0622 150° Southeast  Level Estimated
Tue 03:05:00 AM 7.9791 -64.9968 150° Southeast  Level Estimated
Tue 03:06:00 AM 7.8648 -64.9315 150° Southeast  Level Estimated
Tue 03:07:00 AM 7.7506 -64.8662 150° Southeast  Level Estimated
Tue 03:08:00 AM 7.6363 -64.8009 150° Southeast  Level Estimated
Tue 03:09:00 AM 7.5220 -64.7357 150° Southeast  Level Estimated
Tue 03:10:00 AM 7.4078 -64.6705 150° Southeast  Level Estimated
Tue 03:11:00 AM 7.2935 -64.6053 151° Southeast  Level Estimated
Tue 03:12:00 AM 7.1792 -64.5402 151° Southeast  Level Estimated
Tue 03:13:00 AM 7.0649 -64.4751 151° Southeast  Level Estimated
Tue 03:14:00 AM 6.9506 -64.4100 151° Southeast  Level Estimated
Tue 03:15:00 AM 6.8362 -64.3450 151° Southeast  Level Estimated
Tue 03:16:00 AM 6.7219 -64.2800 151° Southeast  Level Estimated
Tue 03:17:00 AM 6.6075 -64.2150 151° Southeast  Level Estimated
Tue 03:18:00 AM 6.4932 -64.1500 151° Southeast  Level Estimated
Tue 03:19:00 AM 6.3788 -64.0851 151° Southeast  Level Estimated
Tue 03:20:00 AM 6.2645 -64.0202 151° Southeast  Level Estimated
Tue 03:21:00 AM 6.1501 -63.9554 151° Southeast  Level Estimated
Tue 03:22:00 AM 6.0357 -63.8906 151° Southeast  Level Estimated
Tue 03:23:00 AM 5.9213 -63.8258 151° Southeast  Level Estimated
Tue 03:24:00 AM 5.8069 -63.7610 151° Southeast  Level Estimated
Tue 03:25:00 AM 5.6925 -63.6962 151° Southeast  Level Estimated
Tue 03:26:00 AM 5.5781 -63.6315 151° Southeast  Level Estimated
Tue 03:27:00 AM 5.4637 -63.5668 151° Southeast  Level Estimated
Tue 03:28:00 AM 5.3492 -63.5022 151° Southeast  Level Estimated
Tue 03:29:00 AM 5.2348 -63.4375 151° Southeast  Level Estimated
Tue 03:30:00 AM 5.1203 -63.3729 151° Southeast  Level Estimated
Tue 03:31:00 AM 5.0059 -63.3083 151° Southeast  Level Estimated
Tue 03:32:00 AM 4.8914 -63.2437 151° Southeast  Level Estimated
Tue 03:33:00 AM 4.7770 -63.1791 151° Southeast  Level Estimated
Tue 03:34:00 AM 4.6625 -63.1146 151° Southeast  Level Estimated
Tue 03:35:00 AM 4.5480 -63.0501 151° Southeast  Level Estimated
Tue 03:36:00 AM 4.4335 -62.9856 151° Southeast  Level Estimated
Tue 03:37:00 AM 4.3191 -62.9211 151° Southeast  Level Estimated
Tue 03:38:00 AM 4.2046 -62.8567 151° Southeast  Level Estimated
Tue 03:39:00 AM 4.0901 -62.7922 151° Southeast  Level Estimated
Tue 03:40:00 AM 3.9756 -62.7278 151° Southeast  Level Estimated
Tue 03:41:00 AM 3.8611 -62.6634 151° Southeast  Level Estimated
Tue 03:42:00 AM 3.7466 -62.5990 151° Southeast  Level Estimated
Tue 03:43:00 AM 3.6320 -62.5347 151° Southeast  Level Estimated
Tue 03:44:00 AM 3.5175 -62.4703 151° Southeast  Level Estimated
Tue 03:45:00 AM 3.4030 -62.4060 151° Southeast  Level Estimated
Tue 03:46:00 AM 3.2885 -62.3417 151° Southeast  Level Estimated
Tue 03:47:00 AM 3.1739 -62.2774 151° Southeast  Level Estimated
Tue 03:48:00 AM 3.0594 -62.2131 151° Southeast  Level Estimated
Tue 03:49:00 AM 2.9449 -62.1488 151° Southeast  Level Estimated
Tue 03:50:00 AM 2.8303 -62.0845 151° Southeast  Level Estimated
Tue 03:51:00 AM 2.7158 -62.0203 151° Southeast  Level Estimated
Tue 03:52:00 AM 2.6012 -61.9560 151° Southeast  Level Estimated
Tue 03:53:00 AM 2.4867 -61.8918 151° Southeast  Level Estimated
Tue 03:54:00 AM 2.3721 -61.8276 151° Southeast  Level Estimated
Tue 03:55:00 AM 2.2576 -61.7634 151° Southeast  Level Estimated
Tue 03:56:00 AM 2.1430 -61.6992 151° Southeast  Level Estimated
Tue 03:57:00 AM 2.0284 -61.6350 151° Southeast  Level Estimated
Tue 03:58:00 AM 1.9138 -61.5709 151° Southeast  Level Estimated
Tue 03:59:00 AM 1.7993 -61.5067 151° Southeast  Level Estimated
Tue 04:00:00 AM 1.6847 -61.4425 151° Southeast  Level Estimated
Tue 04:01:00 AM 1.5701 -61.3784 151° Southeast  Level Estimated
Tue 04:02:00 AM 1.4555 -61.3142 151° Southeast  Level Estimated
Tue 04:03:00 AM 1.3410 -61.2501 151° Southeast  Level Estimated
Tue 04:04:00 AM 1.2264 -61.1860 151° Southeast  Level Estimated
Tue 04:05:00 AM 1.1118 -61.1218 151° Southeast  Level Estimated
Tue 04:06:00 AM 0.9972 -61.0577 151° Southeast  Level Estimated
Tue 04:07:00 AM 0.8826 -60.9936 151° Southeast  Level Estimated
Tue 04:08:00 AM 0.7681 -60.9295 151° Southeast  Level Estimated
Tue 04:09:00 AM 0.6535 -60.8654 151° Southeast  Level Estimated
Tue 04:10:00 AM 0.5389 -60.8013 151° Southeast  Level Estimated
Tue 04:11:00 AM 0.4243 -60.7372 151° Southeast  Level Estimated
Tue 04:12:00 AM 0.3097 -60.6731 151° Southeast  Level Estimated
Tue 04:13:00 AM 0.1951 -60.6090 151° Southeast  Level Estimated
Tue 04:14:00 AM 0.0805 -60.5449 151° Southeast  Level Estimated
Tue 04:15:00 AM -0.0341 -60.4808 151° Southeast  Level Estimated
Tue 04:16:00 AM -0.1487 -60.4167 151° Southeast  Level Estimated
Tue 04:17:00 AM -0.2633 -60.3526 151° Southeast  Level Estimated
Tue 04:18:00 AM -0.3778 -60.2885 151° Southeast  Level Estimated
Tue 04:19:00 AM -0.4924 -60.2244 151° Southeast  Level Estimated
Tue 04:20:00 AM -0.6070 -60.1603 151° Southeast  Level Estimated
Tue 04:21:00 AM -0.7216 -60.0962 151° Southeast  Level Estimated
Tue 04:22:00 AM -0.8362 -60.0321 151° Southeast  Level Estimated
Tue 04:23:00 AM -0.9508 -59.9679 151° Southeast  Level Estimated
Tue 04:24:00 AM -1.0654 -59.9038 151° Southeast  Level Estimated
Tue 04:25:00 AM -1.1800 -59.8397 151° Southeast  Level Estimated
Tue 04:26:00 AM -1.2945 -59.7756 151° Southeast  Level Estimated
Tue 04:27:00 AM -1.4091 -59.7114 151° Southeast  Level Estimated
Tue 04:28:00 AM -1.5237 -59.6473 151° Southeast  Level Estimated
Tue 04:29:00 AM -1.6383 -59.5831 151° Southeast  Level Estimated
Tue 04:30:00 AM -1.7527 -59.5191 151° Southeast  Level Estimated
Tue 04:31:00 AM -1.8670 -59.4551 151° Southeast  Level Estimated
Tue 04:32:00 AM -1.9814 -59.3910 151° Southeast  Level Estimated
Tue 04:33:00 AM -2.0958 -59.3269 151° Southeast  Level Estimated
Tue 04:34:00 AM -2.2102 -59.2628 151° Southeast  Level Estimated
Tue 04:35:00 AM -2.3245 -59.1987 151° Southeast  Level Estimated
Tue 04:36:00 AM -2.4389 -59.1347 151° Southeast  Level Estimated
Tue 04:37:00 AM -2.5533 -59.0705 151° Southeast  Level Estimated
Tue 04:38:00 AM -2.6676 -59.0064 151° Southeast  Level Estimated
Tue 04:39:00 AM -2.7820 -58.9423 151° Southeast  Level Estimated
Tue 04:40:00 AM -2.8963 -58.8781 151° Southeast  Level Estimated
Tue 04:41:00 AM -3.0107 -58.8140 151° Southeast  Level Estimated
Tue 04:42:00 AM -3.1250 -58.7498 151° Southeast  Level Estimated
Tue 04:43:00 AM -3.2393 -58.6856 151° Southeast  Level Estimated
Tue 04:44:00 AM -3.3537 -58.6214 151° Southeast  Level Estimated
Tue 04:45:00 AM -3.4680 -58.5572 151° Southeast  Level Estimated
Tue 04:46:00 AM -3.5823 -58.4930 151° Southeast  Level Estimated
Tue 04:47:00 AM -3.6967 -58.4287 151° Southeast  Level Estimated
Tue 04:48:00 AM -3.8110 -58.3644 151° Southeast  Level Estimated
Tue 04:48:59 AM -4.0090 -57.2470 151° Southeast 490 564 33,000  Level FlightAware ADS-B
Tue 04:49:00 AM -3.9253 -58.3002 151° Southeast  Level Estimated
Tue 04:49:36 AM -4.0720 -57.2140 152° Southeast 490 564 33,000  Level FlightAware ADS-B
Tue 04:50:13 AM -4.1350 -57.1800 152° Southeast 490 564 33,000  Level FlightAware ADS-B
Tue 04:50:49 AM -4.1960 -57.1480 152° Southeast 490 564 33,000  Level FlightAware ADS-B
Tue 04:51:25 AM -4.2580 -57.1150 152° Southeast 490 564 33,000  Level FlightAware ADS-B
Tue 04:52:03 AM -4.3220 -57.0810 152° Southeast 490 564 33,000  Level FlightAware ADS-B
Tue 04:52:39 AM -4.3840 -57.0480 152° Southeast 490 564 33,000  Level FlightAware ADS-B
Tue 04:53:15 AM -4.4450 -57.0150 152° Southeast 490 564 33,000  Level FlightAware ADS-B
Tue 04:53:51 AM -4.5060 -56.9830 152° Southeast 490 564 33,000  Level FlightAware ADS-B
Tue 04:54:28 AM -4.5690 -56.9490 152° Southeast 490 564 33,000  Level FlightAware ADS-B
Tue 04:55:04 AM -4.6300 -56.9160 152° Southeast 490 564 33,000  Level FlightAware ADS-B
Tue 04:55:40 AM -4.6910 -56.8840 152° Southeast 490 564 33,000  Level FlightAware ADS-B
Tue 04:56:16 AM -4.7530 -56.8510 152° Southeast 490 564 33,000  Level FlightAware ADS-B
Tue 04:56:52 AM -4.8140 -56.8180 152° Southeast 490 564 33,000  Level FlightAware ADS-B
Tue 04:57:28 AM -4.8750 -56.7860 152° Southeast 490 564 33,000  Level FlightAware ADS-B
Tue 04:58:04 AM -4.9360 -56.7530 152° Southeast 490 564 33,000  Level FlightAware ADS-B
Tue 04:58:40 AM -4.9980 -56.7200 152° Southeast 490 564 33,000  Level FlightAware ADS-B
Tue 05:01:00 AM -5.2698 -56.5793 153° Southeast  Level FlightAware Approximate
Tue 05:02:00 AM -5.3864 -56.5190 153° Southeast  Level FlightAware Approximate
Tue 05:03:00 AM -5.5028 -56.4586 153° Southeast  Level FlightAware Approximate
Tue 05:04:00 AM -5.6193 -56.3982 153° Southeast  Level FlightAware Approximate
Tue 05:05:00 AM -5.7358 -56.3378 153° Southeast  Level FlightAware Approximate
Tue 05:06:00 AM -5.8523 -56.2773 153° Southeast  Level FlightAware Approximate
Tue 05:07:00 AM -5.9687 -56.2169 153° Southeast  Level FlightAware Approximate
Tue 05:08:00 AM -6.0850 -56.1565 153° Southeast  Level FlightAware Approximate
Tue 05:09:00 AM -6.2012 -56.0961 153° Southeast  Level FlightAware Approximate
Tue 05:10:00 AM -6.3175 -56.0356 153° Southeast  Level FlightAware Approximate
Tue 05:11:00 AM -6.4337 -55.9752 153° Southeast  Level FlightAware Approximate
Tue 05:12:00 AM -6.5500 -55.9147 153° Southeast  Level FlightAware Approximate
Tue 05:13:00 AM -6.6662 -55.8542 153° Southeast  Level FlightAware Approximate
Tue 05:14:00 AM -6.7824 -55.7936 153° Southeast  Level FlightAware Approximate
Tue 05:15:00 AM -6.8986 -55.7330 153° Southeast  Level FlightAware Approximate
Tue 05:16:00 AM -7.0148 -55.6724 153° Southeast  Level FlightAware Approximate
Tue 05:17:00 AM -7.1310 -55.6118 153° Southeast  Level FlightAware Approximate
Tue 05:18:00 AM -7.2472 -55.5511 153° Southeast  Level FlightAware Approximate
Tue 05:19:00 AM -7.3634 -55.4904 153° Southeast  Level FlightAware Approximate
Tue 05:20:00 AM -7.4796 -55.4297 153° Southeast  Level FlightAware Approximate
Tue 05:21:00 AM -7.5957 -55.3689 153° Southeast  Level FlightAware Approximate
Tue 05:22:00 AM -7.7119 -55.3081 153° Southeast  Level FlightAware Approximate
Tue 05:23:00 AM -7.8280 -55.2473 153° Southeast  Level FlightAware Approximate
Tue 05:24:00 AM -7.9442 -55.1864 153° Southeast  Level FlightAware Approximate
Tue 05:25:00 AM -8.0603 -55.1255 153° Southeast  Level FlightAware Approximate
Tue 05:26:00 AM -8.1764 -55.0646 153° Southeast  Level FlightAware Approximate
Tue 05:27:00 AM -8.2925 -55.0036 153° Southeast  Level FlightAware Approximate
Tue 05:28:00 AM -8.4086 -54.9426 153° Southeast  Level FlightAware Approximate
Tue 05:29:00 AM -8.5247 -54.8815 153° Southeast  Level FlightAware Approximate
Tue 05:30:00 AM -8.6408 -54.8205 153° Southeast  Level FlightAware Approximate
Tue 05:31:00 AM -8.7569 -54.7593 153° Southeast  Level FlightAware Approximate
Tue 05:32:00 AM -8.8729 -54.6982 152° Southeast  Level FlightAware Approximate
Tue 05:33:00 AM -8.9888 -54.6371 152° Southeast  Level FlightAware Approximate
Tue 05:34:00 AM -9.1046 -54.5760 152° Southeast  Level FlightAware Approximate
Tue 05:35:00 AM -9.2205 -54.5148 152° Southeast  Level FlightAware Approximate
Tue 05:36:00 AM -9.3363 -54.4536 152° Southeast  Level FlightAware Approximate
Tue 05:37:00 AM -9.4521 -54.3923 152° Southeast  Level FlightAware Approximate
Tue 05:38:00 AM -9.5679 -54.3311 152° Southeast  Level FlightAware Approximate
Tue 05:39:00 AM -9.6837 -54.2697 152° Southeast  Level FlightAware Approximate
Tue 05:40:00 AM -9.7995 -54.2083 152° Southeast  Level FlightAware Approximate
Tue 05:41:00 AM -9.9153 -54.1469 152° Southeast  Level FlightAware Approximate
Tue 05:42:00 AM -10.0310 -54.0855 152° Southeast  Level FlightAware Approximate
Tue 05:43:00 AM -10.1468 -54.0239 152° Southeast  Level FlightAware Approximate
Tue 05:44:00 AM -10.2625 -53.9624 152° Southeast  Level FlightAware Approximate
Tue 05:45:00 AM -10.3782 -53.9008 152° Southeast  Level FlightAware Approximate
Tue 05:46:00 AM -10.4939 -53.8392 152° Southeast  Level FlightAware Approximate
Tue 05:47:00 AM -10.6096 -53.7775 152° Southeast  Level FlightAware Approximate
Tue 05:48:00 AM -10.7253 -53.7157 152° Southeast  Level FlightAware Approximate
Tue 05:49:00 AM -10.8410 -53.6539 152° Southeast  Level FlightAware Approximate
Tue 05:50:00 AM -10.9567 -53.5921 152° Southeast  Level FlightAware Approximate
Tue 05:51:00 AM -11.0723 -53.5302 152° Southeast  Level FlightAware Approximate
Tue 05:52:00 AM -11.1880 -53.4683 152° Southeast  Level FlightAware Approximate
Tue 05:53:00 AM -11.3036 -53.4063 152° Southeast  Level FlightAware Approximate
Tue 05:54:00 AM -11.4192 -53.3443 152° Southeast  Level FlightAware Approximate
Tue 05:55:00 AM -11.5348 -53.2822 152° Southeast  Level FlightAware Approximate
Tue 05:56:00 AM -11.6504 -53.2201 152° Southeast  Level FlightAware Approximate
Tue 05:57:00 AM -11.7660 -53.1579 152° Southeast  Level FlightAware Approximate
Tue 05:58:00 AM -11.8816 -53.0957 152° Southeast  Level FlightAware Approximate
Tue 05:59:00 AM -11.9971 -53.0334 152° Southeast  Level FlightAware Approximate
Tue 06:00:00 AM -12.1126 -52.9711 152° Southeast  Level FlightAware Approximate
Tue 06:01:00 AM -12.2282 -52.9087 152° Southeast  Level FlightAware Approximate
Tue 06:02:00 AM -12.3437 -52.8462 152° Southeast  Level FlightAware Approximate
Tue 06:03:00 AM -12.4592 -52.7837 152° Southeast  Level FlightAware Approximate
Tue 06:04:00 AM -12.5746 -52.7211 152° Southeast  Level FlightAware Approximate
Tue 06:05:00 AM -12.6901 -52.6585 152° Southeast  Level FlightAware Approximate
Tue 06:06:00 AM -12.8055 -52.5959 152° Southeast  Level FlightAware Approximate
Tue 06:07:00 AM -12.9210 -52.5331 152° Southeast  Level FlightAware Approximate
Tue 06:08:00 AM -13.0364 -52.4703 152° Southeast  Level FlightAware Approximate
Tue 06:09:00 AM -13.1518 -52.4075 152° Southeast  Level FlightAware Approximate
Tue 06:10:00 AM -13.2672 -52.3446 152° Southeast  Level FlightAware Approximate
Tue 06:11:00 AM -13.3826 -52.2816 152° Southeast  Level FlightAware Approximate
Tue 06:12:00 AM -13.4979 -52.2186 152° Southeast  Level FlightAware Approximate
Tue 06:13:00 AM -13.6133 -52.1555 152° Southeast  Level FlightAware Approximate
Tue 06:14:00 AM -13.7286 -52.0924 152° Southeast  Level FlightAware Approximate
Tue 06:15:00 AM -13.8439 -52.0292 152° Southeast  Level FlightAware Approximate
Tue 06:16:00 AM -13.9592 -51.9659 152° Southeast  Level FlightAware Approximate
Tue 06:17:00 AM -14.0745 -51.9026 152° Southeast  Level FlightAware Approximate
Tue 06:18:00 AM -14.1897 -51.8392 152° Southeast  Level FlightAware Approximate
Tue 06:19:00 AM -14.3050 -51.7757 152° Southeast  Level FlightAware Approximate
Tue 06:20:00 AM -14.4202 -51.7122 152° Southeast  Level FlightAware Approximate
Tue 06:21:00 AM -14.5354 -51.6486 152° Southeast  Level FlightAware Approximate
Tue 06:22:00 AM -14.6506 -51.5849 152° Southeast  Level FlightAware Approximate
Tue 06:23:00 AM -14.7658 -51.5212 152° Southeast  Level FlightAware Approximate
Tue 06:24:00 AM -14.8809 -51.4574 152° Southeast  Level FlightAware Approximate
Tue 06:25:00 AM -14.9961 -51.3935 152° Southeast  Level FlightAware Approximate
Tue 06:26:00 AM -15.1112 -51.3296 152° Southeast  Level FlightAware Approximate
Tue 06:27:00 AM -15.2263 -51.2656 152° Southeast  Level FlightAware Approximate
Tue 06:28:00 AM -15.3414 -51.2015 152° Southeast  Level FlightAware Approximate
Tue 06:29:00 AM -15.4565 -51.1374 152° Southeast  Level FlightAware Approximate
Tue 06:30:00 AM -15.5715 -51.0732 152° Southeast  Level FlightAware Approximate
Tue 06:31:00 AM -15.6866 -51.0089 152° Southeast  Level FlightAware Approximate
Tue 06:32:00 AM -15.8016 -50.9445 152° Southeast  Level FlightAware Approximate
Tue 06:33:00 AM -15.9165 -50.8801 152° Southeast  Level FlightAware Approximate
Tue 06:34:00 AM -16.0315 -50.8156 152° Southeast  Level FlightAware Approximate
Tue 06:35:00 AM -16.1465 -50.7510 152° Southeast  Level FlightAware Approximate
Tue 06:36:00 AM -16.2614 -50.6864 152° Southeast  Level FlightAware Approximate
Tue 06:37:00 AM -16.3761 -50.6217 152° Southeast  Level FlightAware Approximate
Tue 06:38:00 AM -16.4908 -50.5570 152° Southeast  Level FlightAware Approximate
Tue 06:39:00 AM -16.6055 -50.4923 152° Southeast  Level FlightAware Approximate
Tue 06:40:00 AM -16.7202 -50.4274 152° Southeast  Level FlightAware Approximate
Tue 06:41:00 AM -16.8348 -50.3625 152° Southeast  Level FlightAware Approximate
Tue 06:42:00 AM -16.9494 -50.2975 152° Southeast  Level FlightAware Approximate
Tue 06:43:00 AM -17.0640 -50.2324 152° Southeast  Level FlightAware Approximate
Tue 06:44:00 AM -17.1786 -50.1672 151° Southeast  Level FlightAware Approximate
Tue 06:45:00 AM -17.2932 -50.1020 151° Southeast  Level FlightAware Approximate
Tue 06:46:00 AM -17.4077 -50.0366 151° Southeast  Level FlightAware Approximate
Tue 06:47:00 AM -17.5222 -49.9712 151° Southeast  Level FlightAware Approximate
Tue 06:48:00 AM -17.6367 -49.9057 151° Southeast  Level FlightAware Approximate
Tue 06:48:27 AM -18.1340 -49.9590 151° Southeast 463 533 33,000  Level FlightAware ADS-B
Tue 06:49:00 AM -17.7512 -49.8402 151° Southeast  Level FlightAware Approximate
Tue 06:49:03 AM -18.2000 -49.9250 154° Southeast 463 533 33,000  Level FlightAware ADS-B
Tue 06:49:35 AM -18.2630 -49.8910 153° Southeast 464 534 33,000  Level FlightAware ADS-B
Tue 06:50:11 AM -18.3320 -49.8540 153° Southeast 465 535 33,000  Level FlightAware ADS-B
Tue 06:50:41 AM -18.3910 -49.8230 154° Southeast 465 535 33,000  Level FlightAware ADS-B
Tue 06:51:19 AM -18.4640 -49.7840 153° Southeast 465 535 33,000  Level FlightAware ADS-B
Tue 06:51:57 AM -18.5370 -49.7460 154° Southeast 466 536 33,000  Level FlightAware ADS-B
Tue 06:52:33 AM -18.6040 -49.7100 153° Southeast 465 535 33,000  Level FlightAware ADS-B
Tue 06:53:09 AM -18.6750 -49.6720 153° Southeast 467 537 33,000  Level FlightAware ADS-B
Tue 06:53:41 AM -18.7370 -49.6390 153° Southeast 467 537 33,000  Level FlightAware ADS-B
Tue 06:54:17 AM -18.8070 -49.6020 153° Southeast 464 534 33,000  Level FlightAware ADS-B
Tue 06:54:54 AM -18.8760 -49.5650 153° Southeast 463 533 33,000  Level FlightAware ADS-B
Tue 06:55:25 AM -18.9360 -49.5320 153° Southeast 463 533 33,000  Level FlightAware ADS-B
Tue 06:56:01 AM -19.0060 -49.4930 152° Southeast 463 533 33,000  Level FlightAware ADS-B
Tue 06:56:37 AM -19.0730 -49.4560 152° Southeast 463 533 33,000  Level FlightAware ADS-B
Tue 06:57:13 AM -19.1400 -49.4190 152° Southeast 465 535 33,000  Level FlightAware ADS-B
Tue 06:57:46 AM -19.2050 -49.3840 153° Southeast 466 536 33,000  Level FlightAware ADS-B
Tue 06:58:22 AM -19.2710 -49.3470 152° Southeast 466 536 33,000  Level FlightAware ADS-B
Tue 06:58:58 AM -19.3440 -49.3070 153° Southeast 468 539 33,000  Level FlightAware ADS-B
Tue 06:59:33 AM -19.4090 -49.2710 152° Southeast 471 542 33,000  Level FlightAware ADS-B
Tue 07:00:06 AM -19.4760 -49.2340 152° Southeast 471 542 33,000  Level FlightAware ADS-B
Tue 07:00:43 AM -19.5460 -49.1950 152° Southeast 473 544 33,000  Level FlightAware ADS-B
Tue 07:01:19 AM -19.6170 -49.1560 153° Southeast 474 545 33,000  Level FlightAware ADS-B
Tue 07:01:49 AM -19.6750 -49.1240 153° Southeast 475 547 33,000  Level FlightAware ADS-B
Tue 07:02:27 AM -19.7470 -49.0780 149° Southeast 477 549 33,000  Level FlightAware ADS-B
Tue 07:03:03 AM -19.8120 -49.0260 143° Southeast 479 551 33,000  Level FlightAware ADS-B
Tue 07:03:35 AM -19.8700 -48.9810 144° Southeast 479 551 33,000  Level FlightAware ADS-B
Tue 07:04:11 AM -19.9350 -48.9320 145° Southeast 479 551 33,000  Level FlightAware ADS-B
Tue 07:04:47 AM -20.0000 -48.8830 145° Southeast 480 552 33,000  Level FlightAware ADS-B
Tue 07:05:24 AM -20.0650 -48.8350 145° Southeast 481 554 33,000  Level FlightAware ADS-B
Tue 07:05:56 AM -20.1200 -48.7940 145° Southeast 480 552 33,000  Level FlightAware ADS-B
Tue 07:06:31 AM -20.1890 -48.7430 145° Southeast 482 555 33,000  Level FlightAware ADS-B
Tue 07:07:08 AM -20.2570 -48.6920 145° Southeast 484 557 33,000  Level FlightAware ADS-B
Tue 07:07:43 AM -20.3210 -48.6430 144° Southeast 485 558 33,000  Level FlightAware ADS-B
Tue 07:08:15 AM -20.3810 -48.5970 144° Southeast 486 559 33,000  Level FlightAware ADS-B
Tue 07:08:51 AM -20.4450 -48.5470 144° Southeast 483 556 33,000  Level FlightAware ADS-B
Tue 07:09:24 AM -20.5030 -48.5020 144° Southeast 483 556 33,000  Level FlightAware ADS-B
Tue 07:10:03 AM -20.5730 -48.4480 144° Southeast 483 556 33,000  Level FlightAware ADS-B
Tue 07:10:38 AM -20.6390 -48.3980 145° Southeast 483 556 33,000  Level FlightAware ADS-B
Tue 07:11:11 AM -20.6980 -48.3520 144° Southeast 482 555 33,000  Level FlightAware ADS-B
Tue 07:11:48 AM -20.7510 -48.3110 144° Southeast 483 556 33,000  Level FlightAware ADS-B
Tue 07:12:24 AM -20.8310 -48.2490 144° Southeast 485 558 33,000  Level FlightAware ADS-B
Tue 07:12:56 AM -20.8900 -48.2040 145° Southeast 489 563 33,000  Level FlightAware ADS-B
Tue 07:13:32 AM -20.9590 -48.1570 148° Southeast 490 564 33,000  Level FlightAware ADS-B
Tue 07:14:05 AM -21.0220 -48.1150 148° Southeast 489 563 33,000  Level FlightAware ADS-B
Tue 07:14:43 AM -21.0970 -48.0680 150° Southeast 487 560 33,000  Level FlightAware ADS-B
Tue 07:15:15 AM -21.1590 -48.0280 149° Southeast 487 560 33,000  Level FlightAware ADS-B
Tue 07:15:51 AM -21.2300 -47.9820 149° Southeast 488 562 33,000  Level FlightAware ADS-B
Tue 07:16:25 AM -21.2940 -47.9400 149° Southeast 491 565 33,000  Level FlightAware ADS-B
Tue 07:17:02 AM -21.3660 -47.8930 149° Southeast 495 570 33,000  Level FlightAware ADS-B
Tue 07:17:37 AM -21.4360 -47.8480 149° Southeast 499 574 33,000  Level FlightAware ADS-B
Tue 07:18:14 AM -21.5080 -47.8000 148° Southeast 499 574 33,000  Level FlightAware ADS-B
Tue 07:18:45 AM -21.5710 -47.7590 149° Southeast 500 575 33,000  Level FlightAware ADS-B
Tue 07:19:21 AM -21.6420 -47.7130 149° Southeast 499 574 33,000  Level FlightAware ADS-B
Tue 07:19:57 AM -21.7120 -47.6670 149° Southeast 495 570 33,000  Level FlightAware ADS-B
Tue 07:20:31 AM -21.7780 -47.6240 149° Southeast 494 568 33,000  Level FlightAware ADS-B
Tue 07:21:07 AM -21.8490 -47.5780 149° Southeast 473 544 33,000  Level FlightAware ADS-B
Tue 07:21:44 AM -21.9170 -47.5330 148° Southeast 482 555 33,000 -783 Level FlightAware ADS-B
Tue 07:22:16 AM -21.9740 -47.4950 148° Southeast 488 562 32,100 -2,687 Descending FlightAware ADS-B
Tue 07:22:51 AM -22.0470 -47.4480 149° Southeast 497 572 30,000 -2,873 Descending FlightAware ADS-B
Tue 07:23:27 AM -22.1180 -47.4010 148° Southeast 486 559 28,700 -2,229 Descending FlightAware ADS-B
Tue 07:24:01 AM -22.1830 -47.3580 149° Southeast 480 552 27,400 -2,382 Descending FlightAware ADS-B
Tue 07:24:35 AM -22.2480 -47.3150 149° Southeast 475 547 26,000 -2,735 Descending FlightAware ADS-B
Tue 07:25:09 AM -22.3120 -47.2730 149° Southeast 480 552 24,300 -2,417 Descending FlightAware ADS-B
Tue 07:25:47 AM -22.3820 -47.2270 149° Southeast 459 528 23,100 -1,865 Descending FlightAware ADS-B
Tue 07:26:23 AM -22.4450 -47.1850 148° Southeast 444 511 22,000 -2,057 Descending FlightAware ADS-B
Tue 07:26:57 AM -22.5040 -47.1460 149° Southeast 438 504 20,700 -1,714 Descending FlightAware ADS-B
Tue 07:27:33 AM -22.5680 -47.1050 149° Southeast 452 520 20,000 -1,114 Descending FlightAware ADS-B
Tue 07:28:07 AM -22.6340 -47.0740 157° South 445 512 19,400 -1,520 Descending FlightAware ADS-B
Tue 07:28:48 AM -22.7090 -47.0420 159° South 433 498 18,100 -2,104 Descending FlightAware ADS-B
Tue 07:29:24 AM -22.7790 -47.0130 159° South 425 489 16,700 -2,137 Descending FlightAware ADS-B
Tue 07:30:01 AM -22.8450 -46.9850 159° South 418 481 15,500 -1,500 Descending FlightAware ADS-B
Tue 07:30:32 AM -22.9010 -46.9620 159° South 396 456 15,000 -985 Descending FlightAware ADS-B
Tue 07:31:08 AM -22.9610 -46.9370 159° South 377 434 14,400 -811 Descending FlightAware ADS-B
Tue 07:31:46 AM -23.0210 -46.9110 158° South 354 407 14,000 -971 Descending FlightAware ADS-B
Tue 07:32:16 AM -23.0660 -46.8920 159° South 327 376 13,300 -2,029 Descending FlightAware ADS-B
Tue 07:32:54 AM -23.1180 -46.8700 159° South 315 362 11,700 -2,351 Descending FlightAware ADS-B
Tue 07:33:30 AM -23.1660 -46.8500 159° South 299 344 10,400 -1,821 Descending FlightAware ADS-B
Tue 07:33:50 AM -23.1910 -46.8390 158° South 278 320 10,000 -1,024 Descending FlightAware ADS-B
Tue 07:34:11 AM -23.2150 -46.8290 159° South 265 305 9,700 -833 Descending FlightAware ADS-B
Tue 07:34:26 AM -23.2320 -46.8220 159° South 258 297 9,500 -833 Descending FlightAware ADS-B
Tue 07:34:47 AM -23.2550 -46.8120 158° South 257 296 9,200 -1,024 Descending FlightAware ADS-B
Tue 07:35:07 AM -23.2770 -46.8030 159° South 258 297 8,800 -1,273 Descending FlightAware ADS-B
Tue 07:35:20 AM -23.2930 -46.7970 161° South 258 297 8,500 -1,273 Descending FlightAware ADS-B
Tue 07:35:40 AM -23.3150 -46.7870 157° South 256 295 8,100 -1,200 Descending FlightAware ADS-B
Tue 07:36:05 AM -23.3410 -46.7760 159° South 253 291 7,600 -1,286 Descending FlightAware ADS-B
Tue 07:36:22 AM -23.3610 -46.7680 160° South 250 288 7,200 -1,091 Descending FlightAware ADS-B
Tue 07:36:38 AM -23.3770 -46.7580 150° Southeast 246 283 7,000 -429 Descending FlightAware ADS-B
Tue 07:36:50 AM -23.3870 -46.7490 140° Southeast 242 278 7,000 -167 Level FlightAware ADS-B
Tue 07:37:14 AM -23.4060 -46.7310 139° Southeast 230 265 6,900 -409 Descending FlightAware ADS-B
Tue 07:37:34 AM -23.4230 -46.7160 141° Southeast 218 251 6,700 -732 Descending FlightAware ADS-B
Tue 07:37:55 AM -23.4380 -46.7010 137° Southeast 208 239 6,400 -833 Descending FlightAware ADS-B
Tue 07:38:10 AM -23.4480 -46.6900 135° Southeast 197 227 6,200 -889 Descending FlightAware ADS-B
Tue 07:38:22 AM -23.4530 -46.6800 119° Southeast 191 220 6,000 -1,125 Descending FlightAware ADS-B
Tue 07:38:42 AM -23.4610 -46.6630 117° Southeast 184 212 5,600 -1,364 Descending FlightAware ADS-B
Tue 07:39:06 AM -23.4690 -46.6420 113° Southeast 177 204 5,000 -1,364 Descending FlightAware ADS-B
Tue 07:39:26 AM -23.4740 -46.6260 109° East 174 200 4,600 -750 Descending FlightAware ADS-B
Tue 07:39:46 AM -23.4720 -46.6090 83° East 166 191 4,500 -450 Descending FlightAware ADS-B
Tue 07:40:06 AM -23.4680 -46.5940 74° East 159 183 4,300 -818 Descending FlightAware ADS-B
Tue 07:40:30 AM -23.4630 -46.5750 74° East 160 184 3,900 -955 Descending FlightAware ADS-B
Tue 07:40:50 AM -23.4580 -46.5600 70° East 159 183 3,600 -900 Descending FlightAware ADS-B
Tue 07:41:10 AM -23.4540 -46.5440 75° East 158 182 3,300 -750 Descending FlightAware ADS-B
Tue 07:41:30 AM -23.4500 -46.5290 74° East 157 181 3,100 -682 Descending FlightAware ADS-B
Tue 07:41:54 AM -23.4450 -46.5110 73° East 156 180 2,800 -792 Descending FlightAware ADS-B
Tue 07:42:23 AM -23.4390 -46.4890 73° East 154 177 2,400 -828 Descending FlightAware ADS-B
Tue 07:42:43 AM -23.4360 -46.4780 73° East 145 167 -7,200 Descending FlightAware ADS-B
Tue 07:43:08 AM -23.4320 -46.4630 74° East 145 167  Level FlightAware ADS-B

Login

Don't have an account? Register now (free) for customized features, flight alerts, and more!